Time;durP1;ratioP1;P1;durP2;ratioP2;P2;SDS_P1;SDS_P2;PMS_P1;PMS_P2;Temp;Humidity;BMP_temperature;BMP_pressure;BME280_temperature;BME280_humidity;BME280_pressure;Samples;Min_cycle;Max_cycle;Signal;HPM_P1;HPM_P2
2024/02/18 00:02:42;;;;;;;13.77;4.90;;;4.00;99.90;;;;;;4448031;28;657626;-74
2024/02/18 00:05:33;;;;;;;12.87;4.77;;;4.00;99.90;;;;;;4428108;28;659616;-74
2024/02/18 00:08:20;;;;;;;11.17;4.77;;;4.00;99.90;;;;;;4424705;28;659305;-74
2024/02/18 00:11:08;;;;;;;14.50;5.67;;;4.10;99.90;;;;;;4428240;28;659238;-74
2024/02/18 00:13:55;;;;;;;18.20;5.87;;;4.00;99.90;;;;;;4446788;28;659656;-74
2024/02/18 00:16:45;;;;;;;16.67;5.47;;;4.10;99.90;;;;;;4427731;28;658753;-74
2024/02/18 00:19:33;;;;;;;11.20;4.33;;;4.00;99.90;;;;;;4425162;28;659113;-74
2024/02/18 00:22:21;;;;;;;11.97;5.27;;;4.00;99.90;;;;;;4433229;28;659406;-75
2024/02/18 00:25:09;;;;;;;17.37;5.13;;;4.10;99.90;;;;;;4427658;28;658480;-74
2024/02/18 00:27:56;;;;;;;11.60;5.77;;;4.10;99.90;;;;;;4447244;28;659054;-74
2024/02/18 00:30:49;;;;;;;10.50;4.85;;;4.10;99.90;;;;;;4429117;28;658373;-75
2024/02/18 00:33:37;;;;;;;12.40;5.20;;;4.10;99.90;;;;;;4430981;28;659871;-74
2024/02/18 00:36:25;;;;;;;14.90;5.50;;;4.00;99.90;;;;;;4430093;28;659316;-74
2024/02/18 00:39:14;;;;;;;14.20;5.97;;;4.00;99.90;;;;;;4412067;28;658789;-74
2024/02/18 00:42:01;;;;;;;11.13;4.87;;;4.10;99.90;;;;;;4420115;28;658457;-74
2024/02/18 00:44:49;;;;;;;7.10;3.97;;;4.00;99.90;;;;;;4408027;28;658989;-74
2024/02/18 00:47:36;;;;;;;9.87;4.10;;;4.10;99.90;;;;;;4434762;28;657234;-74
2024/02/18 00:50:25;;;;;;;9.73;4.10;;;4.10;99.90;;;;;;4413818;28;657698;-74
2024/02/18 00:53:13;;;;;;;8.37;3.77;;;4.10;99.90;;;;;;4423737;28;657678;-74
2024/02/18 00:56:01;;;;;;;8.50;3.97;;;4.00;99.90;;;;;;4436260;28;658093;-74
2024/02/18 00:58:48;;;;;;;12.33;4.00;;;4.10;99.90;;;;;;4413264;28;658028;-74
2024/02/18 01:01:35;;;;;;;9.23;3.53;;;4.00;99.90;;;;;;4434839;28;658839;-74
2024/02/18 01:04:23;;;;;;;7.90;3.20;;;4.00;99.90;;;;;;4413278;28;657705;-74
2024/02/18 01:07:12;;;;;;;8.47;3.30;;;3.90;99.90;;;;;;4435146;28;658536;-74
2024/02/18 01:09:59;;;;;;;8.97;3.90;;;3.90;99.90;;;;;;4412988;28;657887;-74
2024/02/18 01:12:47;;;;;;;7.83;3.30;;;4.00;99.90;;;;;;4435241;28;657553;-74
2024/02/18 01:15:34;;;;;;;7.80;3.00;;;3.90;99.90;;;;;;4411523;28;658313;-74
2024/02/18 01:18:21;;;;;;;5.53;2.80;;;4.00;99.90;;;;;;4434458;28;657367;-70
2024/02/18 01:21:09;;;;;;;8.90;3.17;;;4.00;99.90;;;;;;4411240;28;657558;-74
2024/02/18 01:23:57;;;;;;;7.13;3.17;;;4.00;99.90;;;;;;4415499;28;657915;-74
2024/02/18 01:26:45;;;;;;;7.57;3.10;;;4.00;1.00;;;;;;4393607;28;657828;-74
2024/02/18 01:29:33;;;;;;;9.07;3.00;;;4.00;1.00;;;;;;4411658;28;656588;-74
2024/02/18 01:32:20;;;;;;;9.57;3.23;;;3.90;1.00;;;;;;4417974;28;657019;-74
2024/02/18 01:35:08;;;;;;;7.07;3.13;;;3.90;1.00;;;;;;4396705;28;656254;-75
2024/02/18 01:37:55;;;;;;;8.70;3.60;;;3.90;1.00;;;;;;4434444;28;656673;-74
2024/02/18 01:40:44;;;;;;;8.47;3.67;;;3.90;1.00;;;;;;4431850;28;656645;-74
2024/02/18 01:43:32;;;;;;;8.80;3.23;;;3.90;1.00;;;;;;4455207;28;656567;-74
2024/02/18 01:46:19;;;;;;;12.30;3.90;;;3.90;99.90;;;;;;4432844;28;656564;-74
2024/02/18 01:49:06;;;;;;;15.87;4.03;;;3.80;1.00;;;;;;4447732;28;659138;-74
2024/02/18 01:51:54;;;;;;;11.75;3.03;;;3.90;99.90;;;;;;4431429;28;657275;-74
2024/02/18 01:54:41;;;;;;;6.63;3.17;;;3.90;91.50;;;;;;4448628;28;658228;-74
2024/02/18 01:57:30;;;;;;;6.60;3.00;;;3.90;1.00;;;;;;4430649;28;657193;-74
2024/02/18 02:00:18;;;;;;;7.97;3.70;;;3.90;99.90;;;;;;4445889;28;657206;-74
2024/02/18 02:03:05;;;;;;;7.87;4.07;;;3.80;1.00;;;;;;4452022;28;657799;-74
2024/02/18 02:05:53;;;;;;;10.40;3.73;;;3.80;1.00;;;;;;4431297;28;656565;-74
2024/02/18 02:08:40;;;;;;;8.07;3.60;;;3.90;1.00;;;;;;4449204;28;658208;-74
2024/02/18 02:11:28;;;;;;;5.53;3.20;;;3.90;1.00;;;;;;4441110;28;656749;-74
2024/02/18 02:14:17;;;;;;;7.00;3.10;;;3.90;99.90;;;;;;4449827;28;657252;-74
2024/02/18 02:17:05;;;;;;;8.27;3.30;;;3.90;1.00;;;;;;4430224;28;657774;-74
2024/02/18 02:19:52;;;;;;;3.30;1.67;;;3.80;1.00;;;;;;4454114;28;657003;-74
2024/02/18 02:22:39;;;;;;;7.63;2.87;;;3.90;1.00;;;;;;4427271;28;657491;-74
2024/02/18 02:25:26;;;;;;;5.10;2.43;;;3.90;99.90;;;;;;4453868;28;656546;-74
2024/02/18 02:28:17;;;;;;;6.77;2.67;;;3.90;1.00;;;;;;4429248;28;657664;-74
2024/02/18 02:31:06;;;;;;;5.53;2.53;;;3.90;1.00;;;;;;4427374;28;657009;-74
2024/02/18 02:33:53;;;;;;;6.87;3.10;;;3.80;27.00;;;;;;4431007;28;656518;-74
2024/02/18 02:36:40;;;;;;;7.43;2.87;;;3.90;1.00;;;;;;4452185;28;657334;-74
2024/02/18 02:39:27;;;;;;;6.40;2.40;;;3.80;1.00;;;;;;4417076;28;656230;-74
2024/02/18 02:42:15;;;;;;;4.90;2.53;;;3.80;1.00;;;;;;4431836;28;656761;-74
2024/02/18 02:45:02;;;;;;;8.20;2.70;;;3.90;1.00;;;;;;4429157;28;656369;-74
2024/02/18 02:47:52;;;;;;;7.80;2.77;;;3.80;1.00;;;;;;4435908;28;656852;-74
2024/02/18 02:50:40;;;;;;;5.90;2.70;;;3.80;99.90;;;;;;4406669;28;656874;-74
2024/02/18 02:53:27;;;;;;;6.50;2.47;;;3.80;99.90;;;;;;4451123;28;657433;-74
2024/02/18 02:56:14;;;;;;;9.10;2.77;;;3.80;99.90;;;;;;4406772;28;657988;-74
2024/02/18 02:59:02;;;;;;;4.17;2.47;;;3.80;1.00;;;;;;4429841;28;657684;-75
2024/02/18 03:01:49;;;;;;;8.87;3.50;;;3.70;99.90;;;;;;4412102;28;656515;-75
2024/02/18 03:04:38;;;;;;;8.37;3.37;;;3.60;1.00;;;;;;4429457;28;657927;-74
2024/02/18 03:07:25;;;;;;;9.20;2.43;;;3.60;1.00;;;;;;4412056;28;656835;-74
2024/02/18 03:10:12;;;;;;;7.50;3.10;;;3.70;1.00;;;;;;4421288;28;656354;-75
2024/02/18 03:13:00;;;;;;;9.73;4.10;;;3.60;1.00;;;;;;4431001;28;657368;-74
2024/02/18 03:15:48;;;;;;;9.20;4.03;;;3.60;99.90;;;;;;4424572;28;657097;-74
2024/02/18 03:18:35;;;;;;;10.33;4.23;;;3.60;99.90;;;;;;4433151;28;658139;-74
2024/02/18 03:21:25;;;;;;;9.60;4.27;;;3.60;99.90;;;;;;4410117;28;658824;-75
2024/02/18 03:24:13;;;;;;;7.30;3.60;;;3.50;92.00;;;;;;4420327;28;658191;-74
2024/02/18 03:27:00;;;;;;;6.10;3.60;;;3.50;99.90;;;;;;4429570;28;657710;-75
2024/02/18 03:29:48;;;;;;;10.03;4.33;;;3.50;1.00;;;;;;4404176;28;658560;-75
2024/02/18 03:32:36;;;;;;;11.13;4.37;;;3.50;1.00;;;;;;4414848;28;658982;-74
2024/02/18 03:35:27;;;;;;;8.73;3.00;;;3.60;99.90;;;;;;4410413;28;658076;-74
2024/02/18 03:38:16;;;;;;;9.93;3.60;;;3.60;99.90;;;;;;4417596;28;658123;-74
2024/02/18 03:41:05;;;;;;;11.00;4.50;;;3.60;99.90;;;;;;4428605;28;657682;-74
2024/02/18 03:43:52;;;;;;;12.05;3.72;;;3.50;99.90;;;;;;4426635;28;659242;-74
2024/02/18 03:46:40;;;;;;;9.93;3.53;;;3.50;1.20;;;;;;4444087;28;659405;-74
2024/02/18 03:49:29;;;;;;;8.90;4.00;;;3.60;99.90;;;;;;4446226;28;656685;-74
2024/02/18 03:52:16;;;;;;;13.27;3.90;;;3.60;99.90;;;;;;4448599;28;657911;-74
2024/02/18 03:55:05;;;;;;;9.20;4.37;;;3.60;1.00;;;;;;4402052;28;658472;-75
2024/02/18 03:57:52;;;;;;;7.77;4.03;;;3.50;1.00;;;;;;4445908;28;656928;-74
2024/02/18 04:00:45;;;;;;;10.23;4.30;;;3.50;1.00;;;;;;4453578;28;656507;-74
2024/02/18 04:03:32;;;;;;;13.73;4.30;;;3.40;51.20;;;;;;4388193;28;658044;-74
2024/02/18 04:06:20;;;;;;;11.53;4.60;;;3.50;99.90;;;;;;4419577;28;659281;-74
2024/02/18 04:09:08;;;;;;;9.63;4.00;;;3.40;1.00;;;;;;4414941;28;658380;-74
2024/02/18 04:11:57;;;;;;;9.57;4.37;;;3.40;1.00;;;;;;4437015;28;656497;-74
2024/02/18 04:14:44;;;;;;;14.00;4.53;;;3.40;1.00;;;;;;4411945;28;656873;-75
2024/02/18 04:17:32;;;;;;;9.70;4.07;;;3.40;99.90;;;;;;4432389;28;658026;-74
2024/02/18 04:20:19;;;;;;;12.07;4.57;;;3.40;27.70;;;;;;4430203;28;657469;-75
2024/02/18 04:23:06;;;;;;;12.00;4.77;;;3.40;99.90;;;;;;4453876;28;659494;-74
2024/02/18 04:25:53;;;;;;;9.40;4.75;;;3.40;99.70;;;;;;4425965;28;658085;-74
2024/02/18 04:28:42;;;;;;;10.10;4.80;;;3.40;99.90;;;;;;4454312;28;657272;-74
2024/02/18 04:31:29;;;;;;;14.77;4.47;;;3.40;99.90;;;;;;4426747;28;659180;-75
2024/02/18 04:34:16;;;;;;;13.30;4.60;;;3.40;99.90;;;;;;4449428;28;659355;-74
2024/02/18 04:37:04;;;;;;;13.13;5.35;;;3.40;99.90;;;;;;4430368;28;658554;-75
2024/02/18 04:39:52;;;;;;;15.40;5.13;;;3.40;1.00;;;;;;4448723;28;659209;-75
2024/02/18 04:42:39;;;;;;;11.63;4.80;;;3.30;1.00;;;;;;4431594;28;657578;-75
2024/02/18 04:45:27;;;;;;;10.97;5.17;;;3.30;1.00;;;;;;4450464;28;657487;-75
2024/02/18 04:48:16;;;;;;;19.07;5.83;;;3.40;1.00;;;;;;4430259;28;658800;-75
2024/02/18 04:51:03;;;;;;;12.77;5.63;;;3.40;1.00;;;;;;4417935;28;659311;-74
2024/02/18 04:53:50;;;;;;;9.67;4.90;;;3.40;1.00;;;;;;4443031;28;658161;-74
2024/02/18 04:56:37;;;;;;;19.00;6.00;;;3.40;1.00;;;;;;4417496;28;656896;-75
2024/02/18 04:59:25;;;;;;;12.73;5.30;;;3.40;1.00;;;;;;4454118;28;657574;-74
2024/02/18 05:02:14;;;;;;;14.37;5.77;;;3.40;1.00;;;;;;4449049;28;658214;-74
2024/02/18 05:05:01;;;;;;;16.50;6.57;;;3.40;1.00;;;;;;4431398;28;657985;-74
2024/02/18 05:07:49;;;;;;;12.53;5.80;;;3.40;1.00;;;;;;4428251;28;658295;-75
2024/02/18 05:10:38;;;;;;;14.37;6.07;;;3.30;1.00;;;;;;4434320;28;657838;-75
2024/02/18 05:13:25;;;;;;;16.40;6.87;;;3.30;1.00;;;;;;4431465;28;658631;-75
2024/02/18 05:16:12;;;;;;;15.30;6.53;;;3.30;79.70;;;;;;4442392;28;657796;-75
2024/02/18 05:19:02;;;;;;;13.27;5.30;;;3.20;99.90;;;;;;4431871;28;659462;-75
2024/02/18 05:21:49;;;;;;;10.93;5.47;;;3.30;99.90;;;;;;4413059;28;659147;-74
2024/02/18 05:24:36;;;;;;;11.40;5.53;;;3.20;99.90;;;;;;4447580;28;658423;-75
2024/02/18 05:27:24;;;;;;;13.53;5.60;;;3.20;99.90;;;;;;4412952;28;658638;-75
2024/02/18 05:30:12;;;;;;;10.53;4.80;;;3.20;99.90;;;;;;4449445;28;658367;-75
2024/02/18 05:33:00;;;;;;;8.57;4.57;;;3.20;99.90;;;;;;4408956;28;658682;-75
2024/02/18 05:35:49;;;;;;;13.03;5.17;;;3.10;99.90;;;;;;4431720;28;657563;-74
2024/02/18 05:38:36;;;;;;;10.73;5.00;;;3.10;99.90;;;;;;4449091;28;658217;-74
2024/02/18 05:41:23;;;;;;;10.47;5.13;;;3.10;99.90;;;;;;4429092;28;658396;-75
2024/02/18 05:44:11;;;;;;;12.23;5.00;;;3.00;83.00;;;;;;4434864;28;658881;-75
2024/02/18 05:46:58;;;;;;;12.67;4.23;;;3.10;1.00;;;;;;4430384;28;658516;-75
2024/02/18 05:49:45;;;;;;;10.17;4.43;;;3.00;99.90;;;;;;4454083;28;657836;-75
2024/02/18 05:52:34;;;;;;;11.67;5.20;;;3.00;99.90;;;;;;4427767;28;659171;-75
2024/02/18 05:55:21;;;;;;;12.27;4.63;;;3.00;1.00;;;;;;4451378;28;658738;-75
2024/02/18 05:58:08;;;;;;;12.40;4.80;;;3.00;1.00;;;;;;4431013;28;657641;-74
2024/02/18 06:00:56;;;;;;;12.37;5.13;;;3.00;1.00;;;;;;4450096;28;658074;-75
2024/02/18 06:03:43;;;;;;;10.90;4.77;;;3.00;99.90;;;;;;4413402;28;657808;-74
2024/02/18 06:06:30;;;;;;;11.37;5.40;;;3.00;99.90;;;;;;4452335;28;659004;-75
2024/02/18 06:09:19;;;;;;;12.33;5.17;;;3.00;99.90;;;;;;4429569;28;658787;-75
2024/02/18 06:12:07;;;;;;;11.43;5.90;;;3.00;99.90;;;;;;4448674;28;658992;-74
2024/02/18 06:14:54;;;;;;;8.88;5.22;;;3.00;99.90;;;;;;4412582;28;658641;-75
2024/02/18 06:17:42;;;;;;;12.50;5.43;;;3.10;99.90;;;;;;4454284;28;656896;-74
2024/02/18 06:20:29;;;;;;;13.53;5.67;;;3.10;99.90;;;;;;4429387;28;660037;-75
2024/02/18 06:23:16;;;;;;;10.53;4.93;;;3.10;99.90;;;;;;4450083;28;658213;-74
2024/02/18 06:26:05;;;;;;;11.67;5.37;;;3.10;99.90;;;;;;4429391;28;659342;-75
2024/02/18 06:28:52;;;;;;;15.83;5.33;;;3.10;99.90;;;;;;4438254;28;658370;-75
2024/02/18 06:31:40;;;;;;;12.53;6.10;;;3.20;99.90;;;;;;4452227;28;658660;-75
2024/02/18 06:34:27;;;;;;;15.40;5.17;;;3.10;99.90;;;;;;4452526;28;658505;-75
2024/02/18 06:37:14;;;;;;;10.70;5.10;;;3.00;99.90;;;;;;4425295;28;659083;-75
2024/02/18 06:40:01;;;;;;;11.83;5.50;;;3.10;99.90;;;;;;4445953;28;658657;-75
2024/02/18 06:42:50;;;;;;;11.43;5.33;;;3.10;99.90;;;;;;4412080;28;659533;-75
2024/02/18 06:45:37;;;;;;;9.88;5.05;;;3.20;99.90;;;;;;4433245;28;658194;-75
2024/02/18 06:48:25;;;;;;;10.33;5.10;;;3.20;99.90;;;;;;4449307;28;658212;-74
2024/02/18 06:51:13;;;;;;;12.40;4.70;;;3.30;99.90;;;;;;4442299;28;659254;-74
2024/02/18 06:54:01;;;;;;;12.40;4.87;;;3.30;99.90;;;;;;4438043;28;659264;-74
2024/02/18 06:56:48;;;;;;;10.40;5.13;;;3.40;99.90;;;;;;4427540;28;658967;-74
2024/02/18 06:59:37;;;;;;;10.33;4.60;;;3.50;21.10;;;;;;4451165;28;659256;-74
2024/02/18 07:02:24;;;;;;;13.90;4.87;;;3.50;1.60;;;;;;4427853;28;659627;-75
2024/02/18 07:05:11;;;;;;;8.63;4.43;;;3.50;1.00;;;;;;4451282;28;656927;-74
2024/02/18 07:07:58;;;;;;;8.33;4.30;;;3.60;56.60;;;;;;4429780;28;656755;-74
2024/02/18 07:10:46;;;;;;;10.13;4.33;;;3.40;1.00;;;;;;4448450;28;658628;-74
2024/02/18 07:13:33;;;;;;;7.07;4.17;;;3.40;88.30;;;;;;4429072;28;657937;-74
2024/02/18 07:16:22;;;;;;;11.27;4.80;;;3.60;99.90;;;;;;4451126;28;658339;-74
2024/02/18 07:19:09;;;;;;;9.70;4.50;;;3.50;30.00;;;;;;4426813;28;658773;-74
2024/02/18 07:21:56;;;;;;;10.60;4.60;;;3.60;1.00;;;;;;4447922;28;657923;-74
2024/02/18 07:24:44;;;;;;;9.77;4.30;;;3.60;1.00;;;;;;4427544;28;657720;-74
2024/02/18 07:27:31;;;;;;;11.50;4.50;;;3.70;6.70;;;;;;4450080;28;656725;-74
2024/02/18 07:30:18;;;;;;;12.07;5.27;;;3.80;99.90;;;;;;4428433;28;657659;-74
2024/02/18 07:33:07;;;;;;;12.47;4.97;;;3.60;1.00;;;;;;4446391;28;658968;-74
2024/02/18 07:35:54;;;;;;;10.03;5.13;;;3.80;99.90;;;;;;4424471;28;658691;-74
2024/02/18 07:38:42;;;;;;;11.60;5.70;;;3.70;1.00;;;;;;4449763;28;658352;-74
2024/02/18 07:41:29;;;;;;;10.07;5.83;;;3.80;36.80;;;;;;4411597;28;658041;-74
2024/02/18 07:44:16;;;;;;;12.50;5.90;;;3.90;99.90;;;;;;4446344;28;658922;-74
2024/02/18 07:47:03;;;;;;;12.15;6.18;;;4.00;99.90;;;;;;4422911;28;658386;-74
2024/02/18 07:49:52;;;;;;;13.37;6.00;;;4.00;99.90;;;;;;4450100;28;658630;-74
2024/02/18 07:52:39;;;;;;;12.67;5.07;;;4.20;99.90;;;;;;4422906;28;658882;-74
2024/02/18 07:55:28;;;;;;;11.93;5.30;;;4.20;99.90;;;;;;4445733;28;658790;-74
2024/02/18 07:58:15;;;;;;;14.30;4.97;;;4.20;99.90;;;;;;4423344;28;658833;-74
2024/02/18 08:01:02;;;;;;;9.23;4.40;;;4.20;99.90;;;;;;4427017;28;658983;-75
2024/02/18 08:03:50;;;;;;;10.93;5.13;;;4.30;99.90;;;;;;4451316;28;657626;-74
2024/02/18 08:06:39;;;;;;;8.17;4.60;;;4.20;99.90;;;;;;4443183;28;659107;-74
2024/02/18 08:09:26;;;;;;;10.90;4.63;;;4.00;99.90;;;;;;4447014;28;657775;-74
2024/02/18 08:12:13;;;;;;;9.45;4.85;;;4.30;99.90;;;;;;4427204;28;659365;-74
2024/02/18 08:15:01;;;;;;;5.57;2.97;;;4.20;99.90;;;;;;4446959;28;657895;-74
2024/02/18 08:17:48;;;;;;;10.50;4.17;;;4.30;99.90;;;;;;4427717;28;657583;-75
2024/02/18 08:20:37;;;;;;;10.40;4.67;;;4.30;99.90;;;;;;4449065;28;659136;-74
2024/02/18 08:23:25;;;;;;;11.73;5.20;;;4.30;99.90;;;;;;4426883;28;659586;-74
2024/02/18 08:26:21;;;;;;;13.80;5.10;;;4.50;99.90;;;;;;4410141;28;659247;-74
2024/02/18 08:29:08;;;;;;;8.17;3.70;;;4.50;99.90;;;;;;4402128;28;659384;-74
2024/02/18 08:31:57;;;;;;;9.90;4.57;;;4.60;99.90;;;;;;4448650;28;658241;-74
2024/02/18 08:34:44;;;;;;;8.23;4.57;;;4.60;99.90;;;;;;4428038;28;658554;-74
2024/02/18 08:37:31;;;;;;;11.57;4.00;;;4.70;99.90;;;;;;4445610;28;657643;-74
2024/02/18 08:40:20;;;;;;;8.33;4.63;;;4.70;99.90;;;;;;4425413;28;658709;-74
2024/02/18 08:43:08;;;;;;;10.17;4.87;;;4.90;99.90;;;;;;4443860;28;657489;-74
2024/02/18 08:45:55;;;;;;;10.90;4.87;;;4.70;99.90;;;;;;4444590;28;659418;-74
2024/02/18 08:48:42;;;;;;;11.80;5.10;;;4.80;99.90;;;;;;4426370;28;658396;-74
2024/02/18 08:51:30;;;;;;;14.57;6.00;;;4.90;99.90;;;;;;4435703;28;658967;-74
2024/02/18 08:54:17;;;;;;;11.70;6.50;;;4.90;99.90;;;;;;4440618;28;659156;-74
2024/02/18 08:57:06;;;;;;;17.30;8.77;;;4.80;99.90;;;;;;4453724;28;658896;-74
2024/02/18 08:59:53;;;;;;;19.63;6.90;;;4.50;99.90;;;;;;4430745;28;658959;-74
2024/02/18 09:02:41;;;;;;;21.83;8.60;;;4.30;99.90;;;;;;4449581;28;659139;-74
2024/02/18 09:05:28;;;;;;;17.47;8.13;;;4.50;99.90;;;;;;4429930;28;659209;-74
2024/02/18 09:08:15;;;;;;;14.33;7.40;;;4.50;99.90;;;;;;4432451;28;658973;-74
2024/02/18 09:11:03;;;;;;;17.37;7.73;;;4.40;99.90;;;;;;4420380;28;658878;-74
2024/02/18 09:13:52;;;;;;;12.15;6.90;;;4.60;99.90;;;;;;4450055;28;658742;-74
2024/02/18 09:16:39;;;;;;;12.33;5.37;;;4.60;99.90;;;;;;4430616;28;659387;-74
2024/02/18 09:19:26;;;;;;;12.10;6.20;;;4.60;99.90;;;;;;4448147;28;659004;-74
2024/02/18 09:22:13;;;;;;;15.63;7.13;;;4.70;99.90;;;;;;4413031;28;658496;-74
2024/02/18 09:25:01;;;;;;;11.47;5.67;;;5.00;99.90;;;;;;4453514;28;658908;-74
2024/02/18 09:27:48;;;;;;;12.63;6.07;;;5.20;99.90;;;;;;4412910;28;658725;-74
2024/02/18 09:30:37;;;;;;;11.73;5.87;;;5.20;99.90;;;;;;4452934;28;659108;-74
2024/02/18 09:33:24;;;;;;;13.77;6.33;;;5.20;99.90;;;;;;4425665;28;658950;-74
2024/02/18 09:36:11;;;;;;;12.73;6.10;;;5.00;99.90;;;;;;4448849;28;659337;-74
2024/02/18 09:38:58;;;;;;;7.87;5.23;;;5.00;99.90;;;;;;4430312;28;658988;-74
2024/02/18 09:41:47;;;;;;;11.13;6.07;;;5.30;99.90;;;;;;4454547;28;657838;-74
2024/02/18 09:44:35;;;;;;;13.57;5.93;;;5.50;99.90;;;;;;4426219;28;658606;-74
2024/02/18 09:47:24;;;;;;;13.00;5.70;;;5.40;99.90;;;;;;4434374;28;658989;-74
2024/02/18 09:50:13;;;;;;;13.77;6.60;;;5.40;99.90;;;;;;4429035;28;659088;-74
2024/02/18 09:53:02;;;;;;;11.80;5.40;;;4.90;99.90;;;;;;4419256;28;659231;-74
2024/02/18 09:55:49;;;;;;;10.57;5.77;;;4.80;99.90;;;;;;4427090;28;659584;-74
2024/02/18 09:58:37;;;;;;;11.93;5.83;;;4.60;99.90;;;;;;4452460;28;658600;-74
2024/02/18 10:01:24;;;;;;;14.13;5.83;;;4.50;99.90;;;;;;4425676;28;659643;-75
2024/02/18 10:04:13;;;;;;;14.83;7.10;;;4.30;99.90;;;;;;4435142;28;658233;-73
2024/02/18 10:07:00;;;;;;;14.20;6.50;;;4.40;99.90;;;;;;4426047;28;659062;-74
2024/02/18 10:09:48;;;;;;;17.20;7.07;;;4.60;99.90;;;;;;4429769;28;658499;-73
2024/02/18 10:12:35;;;;;;;10.10;4.73;;;4.90;99.90;;;;;;4449350;28;658843;-74
2024/02/18 10:15:22;;;;;;;15.73;6.10;;;4.70;99.90;;;;;;4438627;28;658959;-74
2024/02/18 10:18:10;;;;;;;18.03;7.43;;;4.80;99.90;;;;;;4448855;28;659258;-74
2024/02/18 10:20:59;;;;;;;14.57;6.57;;;5.00;99.90;;;;;;4411596;28;659198;-74
2024/02/18 10:23:46;;;;;;;6.87;3.23;;;5.20;99.90;;;;;;4447711;28;658323;-74
2024/02/18 10:26:34;;;;;;;11.53;5.67;;;5.20;99.90;;;;;;4430513;28;657929;-74
2024/02/18 10:29:21;;;;;;;33.37;10.80;;;5.00;99.90;;;;;;4452450;28;658549;-74
2024/02/18 10:32:09;;;;;;;9.33;3.53;;;5.40;99.90;;;;;;4424715;28;660354;-74
2024/02/18 10:34:56;;;;;;;10.80;5.10;;;5.50;99.90;;;;;;4450198;28;658484;-74
2024/02/18 10:37:45;;;;;;;14.53;4.23;;;5.80;99.90;;;;;;4411532;28;659059;-74
2024/02/18 10:40:35;;;;;;;15.23;5.80;;;6.40;99.90;;;;;;4447826;28;658348;-74
2024/02/18 10:43:22;;;;;;;10.57;5.37;;;7.40;99.90;;;;;;4425054;28;659264;-74
2024/02/18 10:46:09;;;;;;;9.40;4.50;;;7.80;99.90;;;;;;4411758;28;659548;-74
2024/02/18 10:48:57;;;;;;;2.90;1.63;;;7.40;99.90;;;;;;4448557;28;657452;-74
2024/02/18 10:51:46;;;;;;;4.50;2.70;;;6.60;99.90;;;;;;4423819;28;658268;-74
2024/02/18 10:54:39;;;;;;;5.00;2.37;;;6.10;99.90;;;;;;4416899;28;657857;-74
2024/02/18 10:57:26;;;;;;;10.60;5.30;;;6.30;99.90;;;;;;4425335;28;657700;-74
2024/02/18 11:00:14;;;;;;;11.73;5.20;;;7.20;99.90;;;;;;4409760;28;658936;-74
2024/02/18 11:03:04;;;;;;;8.77;4.93;;;8.10;75.60;;;;;;4430187;28;658390;-74
2024/02/18 11:05:52;;;;;;;10.93;4.93;;;8.50;99.90;;;;;;4429903;28;657627;-74
2024/02/18 11:08:40;;;;;;;7.57;4.40;;;9.10;99.90;;;;;;4428552;28;659847;-75
2024/02/18 11:11:30;;;;;;;11.57;5.13;;;10.80;67.80;;;;;;4433136;28;657569;-75
2024/02/18 11:14:17;;;;;;;9.00;4.40;;;10.90;72.60;;;;;;4445309;28;660807;-75
2024/02/18 11:17:05;;;;;;;10.97;4.70;;;11.70;63.10;;;;;;4451515;28;659245;-75
2024/02/18 11:19:52;;;;;;;8.23;4.67;;;11.90;56.90;;;;;;4420718;28;659813;-75
2024/02/18 11:22:40;;;;;;;10.43;5.00;;;11.50;62.70;;;;;;4447583;28;659384;-75
2024/02/18 11:25:27;;;;;;;9.67;4.40;;;11.50;61.70;;;;;;4426095;28;660033;-75
2024/02/18 11:28:16;;;;;;;8.53;4.70;;;11.40;59.90;;;;;;4447710;28;659160;-75
2024/02/18 11:31:03;;;;;;;9.47;3.63;;;11.30;67.20;;;;;;4428318;28;658732;-75
2024/02/18 11:33:51;;;;;;;10.70;4.80;;;12.30;55.20;;;;;;4446897;28;659523;-75
2024/02/18 11:36:38;;;;;;;10.60;5.37;;;11.20;58.30;;;;;;4409244;28;659622;-75
2024/02/18 11:39:30;;;;;;;9.37;5.00;;;11.30;58.00;;;;;;4450254;28;659936;-75
2024/02/18 11:42:21;;;;;;;8.83;5.00;;;10.80;58.30;;;;;;4413459;28;658999;-75
2024/02/18 11:45:13;;;;;;;7.23;4.57;;;10.70;54.10;;;;;;4421233;28;658664;-75
2024/02/18 11:48:02;;;;;;;10.80;5.20;;;12.80;59.70;;;;;;4397444;28;658468;-75
2024/02/18 11:50:49;;;;;;;8.63;4.73;;;14.20;51.60;;;;;;4415259;28;659792;-75
2024/02/18 11:53:37;;;;;;;11.27;4.50;;;14.40;50.10;;;;;;4446263;28;658525;-76
2024/02/18 11:56:24;;;;;;;10.93;5.03;;;14.30;50.30;;;;;;4408391;28;659331;-75
2024/02/18 11:59:11;;;;;;;9.20;3.53;;;13.50;53.40;;;;;;4410374;28;659410;-75
2024/02/18 12:02:02;;;;;;;11.37;5.30;;;12.40;53.60;;;;;;4399401;28;659029;-75
2024/02/18 12:04:49;;;;;;;9.43;4.90;;;12.10;56.10;;;;;;4421019;28;661295;-75
2024/02/18 12:07:36;;;;;;;9.83;4.37;;;12.00;55.40;;;;;;4449420;28;658402;-75
2024/02/18 12:10:24;;;;;;;10.40;5.20;;;12.20;51.70;;;;;;4426414;28;659454;-75
2024/02/18 12:13:11;;;;;;;8.23;4.43;;;11.50;52.10;;;;;;4443520;28;660073;-76
2024/02/18 12:15:58;;;;;;;10.57;5.27;;;11.90;53.90;;;;;;4426288;28;658692;-75
2024/02/18 12:18:47;;;;;;;9.27;5.00;;;10.90;59.20;;;;;;4444179;28;660178;-75
2024/02/18 12:21:34;;;;;;;10.57;4.93;;;11.60;52.90;;;;;;4422278;28;659066;-75
2024/02/18 12:24:22;;;;;;;8.37;4.20;;;11.60;55.00;;;;;;4444644;28;659548;-76
2024/02/18 12:27:09;;;;;;;11.13;4.30;;;13.40;49.30;;;;;;4430148;28;659145;-76
2024/02/18 12:29:56;;;;;;;9.73;3.97;;;12.40;48.40;;;;;;4448432;28;659868;-75
2024/02/18 12:32:45;;;;;;;9.87;4.93;;;11.10;53.10;;;;;;4427837;28;658737;-75
2024/02/18 12:35:34;;;;;;;11.47;5.47;;;11.00;58.40;;;;;;4412648;28;658727;-75
2024/02/18 12:38:22;;;;;;;8.83;4.73;;;12.20;52.90;;;;;;4442905;28;660479;-75
2024/02/18 12:41:10;;;;;;;9.70;4.57;;;12.50;52.90;;;;;;4408591;28;659811;-75
2024/02/18 12:43:58;;;;;;;4.17;2.47;;;11.70;50.70;;;;;;4405849;28;659121;-75
2024/02/18 12:46:45;;;;;;;9.43;4.40;;;10.30;52.20;;;;;;4425028;28;659587;-75
2024/02/18 12:49:35;;;;;;;8.93;4.73;;;10.70;54.40;;;;;;4419346;28;659262;-75
2024/02/18 12:52:24;;;;;;;10.32;4.80;;;12.90;52.50;;;;;;4427790;28;658449;-75
2024/02/18 12:55:11;;;;;;;5.90;3.57;;;13.90;48.60;;;;;;4437592;28;660013;-75
2024/02/18 12:57:58;;;;;;;8.97;4.90;;;11.30;48.40;;;;;;4402422;28;659127;-75
2024/02/18 13:00:46;;;;;;;8.10;4.33;;;11.10;49.30;;;;;;4445466;28;659200;-75
2024/02/18 13:03:34;;;;;;;10.17;4.70;;;12.10;51.40;;;;;;4412345;28;658652;-75
2024/02/18 13:06:22;;;;;;;8.40;4.73;;;12.90;48.60;;;;;;4427442;28;659743;-75
2024/02/18 13:09:20;;;;;;;9.43;5.43;;;11.50;48.50;;;;;;4397832;28;659018;-75
2024/02/18 13:12:09;;;;;;;11.73;4.60;;;11.70;48.40;;;;;;4436617;28;658661;-75
2024/02/18 13:14:57;;;;;;;9.57;4.87;;;11.90;48.00;;;;;;4440974;28;659603;-75
2024/02/18 13:17:50;;;;;;;10.37;5.00;;;12.10;49.00;;;;;;4422887;28;659176;-74
2024/02/18 13:20:37;;;;;;;8.97;4.77;;;12.50;49.70;;;;;;4406928;28;660845;-75
2024/02/18 13:23:24;;;;;;;9.80;4.93;;;13.80;48.70;;;;;;4415934;28;659470;-75
2024/02/18 13:26:13;;;;;;;12.00;5.00;;;14.90;43.00;;;;;;4429370;28;658591;-75
2024/02/18 13:29:00;;;;;;;6.22;3.22;;;15.70;43.70;;;;;;4402636;28;659612;-75
2024/02/18 13:31:48;;;;;;;10.43;5.03;;;13.90;44.50;;;;;;4421423;28;658865;-75
2024/02/18 13:34:35;;;;;;;10.10;5.00;;;14.20;46.30;;;;;;4429743;28;660032;-75
2024/02/18 13:37:22;;;;;;;10.57;5.43;;;14.70;44.80;;;;;;4437413;28;659853;-75
2024/02/18 13:40:11;;;;;;;9.83;4.90;;;13.40;43.50;;;;;;4438040;28;660778;-75
2024/02/18 13:43:00;;;;;;;9.10;4.73;;;13.30;46.70;;;;;;4422917;28;659297;-75
2024/02/18 13:45:47;;;;;;;8.53;4.97;;;13.40;47.50;;;;;;4423422;28;658585;-75
2024/02/18 13:48:35;;;;;;;7.33;4.30;;;13.80;47.10;;;;;;4439664;28;658440;-75
2024/02/18 13:51:22;;;;;;;10.60;3.90;;;13.30;46.40;;;;;;4426887;28;659081;-74
2024/02/18 13:54:10;;;;;;;9.60;4.80;;;11.90;48.80;;;;;;4436462;28;660487;-75
2024/02/18 13:56:57;;;;;;;11.97;5.40;;;12.00;49.60;;;;;;4442137;28;658459;-74
2024/02/18 13:59:46;;;;;;;12.97;5.63;;;11.40;51.70;;;;;;4420165;28;660269;-75
2024/02/18 14:02:33;;;;;;;11.43;5.03;;;12.10;50.10;;;;;;4415831;28;659997;-74
2024/02/18 14:05:21;;;;;;;8.30;4.23;;;12.60;47.70;;;;;;4435452;28;660166;-74
2024/02/18 14:08:08;;;;;;;10.37;5.27;;;11.90;49.80;;;;;;4400987;28;658796;-74
2024/02/18 14:10:55;;;;;;;9.77;5.40;;;11.20;50.70;;;;;;4406145;28;660264;-75
2024/02/18 14:13:42;;;;;;;14.20;6.27;;;11.40;51.00;;;;;;4358133;28;658752;-75
2024/02/18 14:16:35;;;;;;;11.67;4.90;;;10.90;51.30;;;;;;4378432;28;659977;-74
2024/02/18 14:19:22;;;;;;;10.97;5.37;;;10.50;53.00;;;;;;4367401;28;659646;-74
2024/02/18 14:22:10;;;;;;;11.17;5.47;;;10.20;54.50;;;;;;4373606;28;660559;-74
2024/02/18 14:24:58;;;;;;;13.93;5.95;;;9.60;54.30;;;;;;4371173;28;659776;-74
2024/02/18 14:27:45;;;;;;;11.03;5.63;;;9.40;55.60;;;;;;4400203;28;659885;-74